createdAt,value
2022-08-17T00:00:36.902Z,99957.78
2022-08-17T00:05:39.762Z,99954.53
2022-08-17T00:10:42.732Z,99956.66
2022-08-17T00:15:46.564Z,99951.53
2022-08-17T00:20:48.983Z,99954.94
2022-08-17T00:25:52.061Z,99950.91
2022-08-17T00:30:54.484Z,99954.72
2022-08-17T00:35:56.967Z,99952.78
2022-08-17T00:41:10.356Z,99957.53
2022-08-17T00:46:16.025Z,99951.47
2022-08-17T00:51:33.700Z,99943.50
2022-08-17T00:56:44.669Z,99938.75
2022-08-17T01:01:48.389Z,99936.38
2022-08-17T01:06:51.346Z,99937.44
2022-08-17T01:11:53.773Z,99931.28
2022-08-17T01:16:56.677Z,99934.81
2022-08-17T01:22:05.124Z,99923.03
2022-08-17T01:27:10.340Z,99928.69
2022-08-17T01:32:13.286Z,99924.41
2022-08-17T01:37:15.832Z,99919.25
2022-08-17T01:42:23.831Z,99926.38
2022-08-17T01:47:26.174Z,99925.97
2022-08-17T01:52:29.920Z,99921.44
2022-08-17T01:57:32.441Z,99917.63
2022-08-17T02:02:34.751Z,99914.88
2022-08-17T02:07:59.383Z,99919.19
2022-08-17T02:12:59.907Z,99919.03
2022-08-17T02:18:03.817Z,99916.56
2022-08-17T02:23:08.971Z,99909.41
2022-08-17T02:28:11.452Z,99911.25
2022-08-17T02:33:13.899Z,99908.97
2022-08-17T02:38:17.533Z,99914.66
2022-08-17T02:43:20.008Z,99918.44
2022-08-17T02:48:30.423Z,99917.88
2022-08-17T02:53:35.901Z,99905.91
2022-08-17T02:58:38.569Z,99907.56
2022-08-17T03:03:41.425Z,99915.00
2022-08-17T03:08:43.790Z,99910.94
2022-08-17T03:13:46.220Z,99909.22
2022-08-17T03:18:49.289Z,99913.22
2022-08-17T03:23:54.270Z,99907.75
2022-08-17T03:28:56.872Z,99904.78
2022-08-17T03:33:59.275Z,99904.94
2022-08-17T03:39:02.327Z,99901.44
2022-08-17T03:44:04.952Z,99900.16
2022-08-17T03:49:26.708Z,99904.59
2022-08-17T03:54:47.522Z,99914.78
2022-08-17T03:59:49.975Z,99911.97
2022-08-17T04:04:52.943Z,99905.00
2022-08-17T04:09:55.322Z,99902.78
2022-08-17T04:14:57.741Z,99896.66
2022-08-17T04:20:00.083Z,99895.06
2022-08-17T04:25:06.647Z,99904.25
2022-08-17T04:30:09.626Z,99901.34
2022-08-17T04:35:12.391Z,99896.59
2022-08-17T04:43:41.183Z,99902.44
2022-08-17T04:48:48.684Z,99882.09
2022-08-17T04:53:58.394Z,99886.97
2022-08-17T04:59:04.803Z,99889.69
2022-08-17T05:04:25.157Z,99890.59
2022-08-17T05:09:33.093Z,99894.94
2022-08-17T05:14:35.648Z,99878.88
2022-08-17T05:19:38.413Z,99873.16
2022-08-17T05:24:43.679Z,99872.41
2022-08-17T05:29:57.472Z,99856.31
2022-08-17T05:35:00.866Z,99848.25
2022-08-17T05:40:04.442Z,99865.00
2022-08-17T05:45:09.626Z,99849.94
2022-08-17T05:50:27.080Z,99859.25
2022-08-17T05:55:37.407Z,99861.03
2022-08-17T06:00:54.232Z,99843.72
2022-08-17T06:06:15.087Z,99862.78
2022-08-17T06:11:29.549Z,99859.78
2022-08-17T06:16:37.475Z,99832.09
2022-08-17T06:21:44.584Z,99848.88
2022-08-17T06:26:48.056Z,99857.91
2022-08-17T06:31:51.947Z,99840.44
2022-08-17T06:37:04.246Z,99843.41
2022-08-17T06:42:54.716Z,99847.66
2022-08-17T06:48:13.768Z,99840.28
2022-08-17T06:53:28.007Z,99853.13
2022-08-17T06:58:32.425Z,99844.97
2022-08-17T07:03:41.790Z,99844.47
2022-08-17T07:09:06.289Z,99846.31
2022-08-17T07:14:43.973Z,99833.00
2022-08-17T07:19:50.972Z,99815.31
2022-08-17T07:25:01.188Z,99822.66
2022-08-17T07:30:25.894Z,99833.66
2022-08-17T07:35:37.579Z,99823.84
2022-08-17T07:41:05.411Z,99801.50
2022-08-17T07:46:29.998Z,99817.84
2022-08-17T07:51:39.481Z,99815.69
2022-08-17T07:56:55.260Z,99811.00
2022-08-17T08:01:58.218Z,99817.84
2022-08-17T08:07:07.947Z,99813.41
2022-08-17T08:12:30.577Z,99819.06
2022-08-17T08:17:53.341Z,99802.47
2022-08-17T08:23:33.877Z,99804.06
2022-08-17T08:28:57.179Z,99817.63
2022-08-17T08:34:47.360Z,99802.00
2022-08-17T08:39:54.553Z,99797.84
2022-08-17T08:45:13.107Z,99791.28
2022-08-17T08:50:37.291Z,99802.53
2022-08-17T08:55:53.054Z,99787.72
2022-08-17T09:00:58.431Z,99776.41
2022-08-17T09:06:37.588Z,99802.03
2022-08-17T09:12:03.658Z,99791.22
2022-08-17T09:17:14.927Z,99792.50
2022-08-17T09:22:36.512Z,99780.16
2022-08-17T09:28:06.030Z,99774.84
2022-08-17T09:33:11.713Z,99794.91
2022-08-17T09:38:35.457Z,99781.28
2022-08-17T09:43:52.964Z,99771.97
2022-08-17T09:49:10.649Z,99765.59
2022-08-17T09:54:40.860Z,99757.09
2022-08-17T09:59:53.610Z,99774.16
2022-08-17T10:05:28.324Z,99755.63
2022-08-17T10:10:56.448Z,99766.66
2022-08-17T10:16:37.615Z,99748.41
2022-08-17T10:22:00.651Z,99762.31
2022-08-17T10:27:11.638Z,99754.56
2022-08-17T10:32:32.311Z,99750.22
2022-08-17T10:38:10.008Z,99750.22
2022-08-17T10:43:31.516Z,99753.72
2022-08-17T10:48:38.089Z,99726.72
2022-08-17T10:53:43.668Z,99748.63
2022-08-17T10:58:54.170Z,99738.56
2022-08-17T11:03:57.474Z,99727.88
2022-08-17T11:09:17.253Z,99701.63
2022-08-17T11:14:35.687Z,99745.22
2022-08-17T11:19:44.230Z,99724.50
2022-08-17T11:24:51.376Z,99723.88
2022-08-17T11:30:06.748Z,99709.47
2022-08-17T11:35:47.269Z,99711.97
2022-08-17T11:41:05.683Z,99729.59
2022-08-17T11:46:25.128Z,99713.09
2022-08-17T11:52:04.332Z,99710.00
2022-08-17T11:57:25.539Z,99702.28
2022-08-17T12:02:32.586Z,99705.53
2022-08-17T12:07:43.647Z,99695.47
2022-08-17T12:12:50.341Z,99688.97
2022-08-17T12:17:55.081Z,99689.63
2022-08-17T12:23:17.413Z,99693.16
2022-08-17T12:28:29.086Z,99664.03
2022-08-17T12:33:32.320Z,99668.31
2022-08-17T12:38:37.775Z,99662.81
2022-08-17T12:43:40.454Z,99681.69
2022-08-17T12:48:59.704Z,99671.69
2022-08-17T12:54:02.975Z,99671.25
2022-08-17T12:59:07.235Z,99687.69
2022-08-17T13:04:16.192Z,99662.06
2022-08-17T13:09:39.936Z,99675.31
2022-08-17T13:14:46.525Z,99671.66
2022-08-17T13:19:51.113Z,99678.41
2022-08-17T13:24:58.169Z,99676.72
2022-08-17T13:30:11.857Z,99677.69
2022-08-17T13:35:39.230Z,99677.13
2022-08-17T13:40:53.311Z,99672.50
2022-08-17T13:46:08.920Z,99673.75
2022-08-17T13:51:21.294Z,99664.91
2022-08-17T13:56:45.323Z,99652.97
2022-08-17T14:01:53.840Z,99669.72
2022-08-17T14:07:05.423Z,99666.66
2022-08-17T14:12:13.492Z,99675.81
2022-08-17T14:17:16.303Z,99678.72
2022-08-17T14:22:23.812Z,99672.13
2022-08-17T14:27:28.271Z,99661.72
2022-08-17T14:32:34.624Z,99661.47
2022-08-17T14:37:37.449Z,99675.13
2022-08-17T14:42:43.024Z,99662.22
2022-08-17T14:47:46.816Z,99674.34
2022-08-17T14:52:49.792Z,99664.31
2022-08-17T14:57:52.642Z,99675.53
2022-08-17T15:02:58.597Z,99645.81
2022-08-17T15:08:02.870Z,99671.13
2022-08-17T15:13:15.863Z,99671.53
2022-08-17T15:18:18.787Z,99666.06
2022-08-17T15:23:24.411Z,99665.69
2022-08-17T15:28:27.045Z,99676.25
2022-08-17T15:33:31.133Z,99670.25
2022-08-17T15:38:36.904Z,99664.38
2022-08-17T15:43:39.528Z,99649.72
2022-08-17T15:48:44.741Z,99651.59
2022-08-17T15:53:51.224Z,99672.06
2022-08-17T15:58:55.442Z,99672.25
2022-08-17T16:04:06.764Z,99669.66
2022-08-17T16:09:09.967Z,99681.16
2022-08-17T16:14:13.565Z,99669.81
2022-08-17T16:19:17.213Z,99682.31
2022-08-17T16:24:19.924Z,99671.78
2022-08-17T16:29:22.773Z,99682.91
2022-08-17T16:34:25.448Z,99684.81
2022-08-17T16:39:29.440Z,99679.53
2022-08-17T16:44:32.725Z,99694.13
2022-08-17T16:49:38.135Z,99664.19
2022-08-17T16:54:45.999Z,99692.09
2022-08-17T16:59:51.564Z,99695.22
2022-08-17T17:05:28.533Z,99668.84
2022-08-17T17:10:43.616Z,99706.84
2022-08-17T17:15:57.679Z,99701.72
2022-08-17T17:21:01.266Z,99707.94
2022-08-17T17:26:27.451Z,99692.28
2022-08-17T17:31:40.025Z,99707.03
2022-08-17T17:36:48.577Z,99697.75
2022-08-17T17:41:58.162Z,99677.13
2022-08-17T17:47:03.223Z,99693.56
2022-08-17T17:52:28.451Z,99686.88
2022-08-17T17:57:57.978Z,99661.78
2022-08-17T18:03:09.492Z,99676.81
2022-08-17T18:08:49.993Z,99688.91
2022-08-17T18:14:35.681Z,99680.88
2022-08-17T18:19:40.109Z,99687.56
2022-08-17T18:24:46.744Z,99682.66
2022-08-17T18:29:53.315Z,99685.84
2022-08-17T18:35:10.175Z,99686.06
2022-08-17T18:40:19.577Z,99682.31
2022-08-17T18:45:48.763Z,99694.13
2022-08-17T18:50:54.110Z,99689.06
2022-08-17T18:56:16.930Z,99682.28
2022-08-17T19:01:21.390Z,99667.00
2022-08-17T19:06:31.539Z,99689.94
2022-08-17T19:11:35.877Z,99686.97
2022-08-17T19:16:47.126Z,99682.69
2022-08-17T19:21:53.499Z,99687.53
2022-08-17T19:27:20.839Z,99676.00
2022-08-17T19:32:32.091Z,99691.03
2022-08-17T19:38:00.863Z,99659.25
2022-08-17T19:43:12.897Z,99676.34
2022-08-17T19:48:37.420Z,99687.09
2022-08-17T19:54:06.358Z,99688.06
2022-08-17T19:59:21.204Z,99677.13
2022-08-17T20:04:32.630Z,99676.47
2022-08-17T20:09:44.033Z,99676.47
2022-08-17T20:15:18.748Z,99689.34
2022-08-17T20:20:21.431Z,99690.97
2022-08-17T20:25:32.562Z,99694.34
2022-08-17T20:30:40.973Z,99702.78
2022-08-17T20:36:00.673Z,99696.06
2022-08-17T20:41:04.017Z,99701.13
2022-08-17T20:46:26.802Z,99713.22
2022-08-17T20:52:01.429Z,99714.47
2022-08-17T20:57:06.775Z,99708.88
2022-08-17T21:02:22.577Z,99705.75
2022-08-17T21:07:43.019Z,99723.19
2022-08-17T21:12:51.566Z,99722.44
2022-08-17T21:18:01.078Z,99705.34
2022-08-17T21:23:16.345Z,99726.75
2022-08-17T21:29:00.242Z,99719.47
2022-08-17T21:34:16.197Z,99720.56
2022-08-17T21:39:33.081Z,99717.56
2022-08-17T21:44:43.058Z,99731.84
2022-08-17T21:49:45.778Z,99726.75
2022-08-17T21:54:57.643Z,99724.97
2022-08-17T22:00:04.988Z,99726.84
2022-08-17T22:05:11.847Z,99736.94
2022-08-17T22:10:49.121Z,99727.50
2022-08-17T22:16:15.343Z,99731.69
2022-08-17T22:21:30.941Z,99734.38
2022-08-17T22:27:00.423Z,99742.03
2022-08-17T22:32:03.702Z,99726.19
2022-08-17T22:37:28.059Z,99746.22
2022-08-17T22:42:31.293Z,99745.94
2022-08-17T22:47:48.605Z,99729.84
2022-08-17T22:53:18.889Z,99749.75
2022-08-17T22:58:43.489Z,99747.44
2022-08-17T23:04:06.769Z,99750.06
2022-08-17T23:09:09.577Z,99755.31
2022-08-17T23:14:14.552Z,99756.09
2022-08-17T23:19:21.865Z,99745.94
2022-08-17T23:24:28.012Z,99762.44
2022-08-17T23:29:30.657Z,99758.41
2022-08-17T23:34:33.565Z,99760.13
2022-08-17T23:39:36.449Z,99758.97
2022-08-17T23:44:43.684Z,99755.34
2022-08-17T23:49:46.336Z,99754.44
2022-08-17T23:54:49.569Z,99753.41
2022-08-17T23:59:52.355Z,99750.19
